sensor_id;sensor_type;location;lat;lon;timestamp;P1;durP1;ratioP1;P2;durP2;ratioP2
50433;SDS011;36361;38.954;-9.002;2023-02-28T00:00:01;9.97;;;2.30;;
50433;SDS011;36361;38.954;-9.002;2023-02-28T00:01:10;12.75;;;2.83;;
50433;SDS011;36361;38.954;-9.002;2023-02-28T00:02:12;10.53;;;3.00;;
50433;SDS011;36361;38.954;-9.002;2023-02-28T00:03:14;7.53;;;3.03;;
50433;SDS011;36361;38.954;-9.002;2023-02-28T00:04:16;8.73;;;2.80;;
50433;SDS011;36361;38.954;-9.002;2023-02-28T00:05:18;9.90;;;2.67;;
50433;SDS011;36361;38.954;-9.002;2023-02-28T00:06:21;13.23;;;3.23;;
50433;SDS011;36361;38.954;-9.002;2023-02-28T00:07:22;8.83;;;2.87;;
50433;SDS011;36361;38.954;-9.002;2023-02-28T00:08:24;6.97;;;2.73;;
50433;SDS011;36361;38.954;-9.002;2023-02-28T00:09:25;7.40;;;2.67;;
50433;SDS011;36361;38.954;-9.002;2023-02-28T00:10:28;10.00;;;2.90;;
50433;SDS011;36361;38.954;-9.002;2023-02-28T00:11:30;8.37;;;2.67;;
50433;SDS011;36361;38.954;-9.002;2023-02-28T00:12:31;6.87;;;2.67;;
50433;SDS011;36361;38.954;-9.002;2023-02-28T00:13:36;8.30;;;3.10;;
50433;SDS011;36361;38.954;-9.002;2023-02-28T00:14:41;9.35;;;3.17;;
50433;SDS011;36361;38.954;-9.002;2023-02-28T00:15:42;7.10;;;2.50;;
50433;SDS011;36361;38.954;-9.002;2023-02-28T00:16:45;10.40;;;3.27;;
50433;SDS011;36361;38.954;-9.002;2023-02-28T00:17:47;14.70;;;3.40;;
50433;SDS011;36361;38.954;-9.002;2023-02-28T00:18:48;7.70;;;3.00;;
50433;SDS011;36361;38.954;-9.002;2023-02-28T00:19:50;8.83;;;3.23;;
50433;SDS011;36361;38.954;-9.002;2023-02-28T00:20:52;5.80;;;2.30;;
50433;SDS011;36361;38.954;-9.002;2023-02-28T00:21:53;7.97;;;2.30;;
50433;SDS011;36361;38.954;-9.002;2023-02-28T00:22:55;8.03;;;2.37;;
50433;SDS011;36361;38.954;-9.002;2023-02-28T00:23:57;6.13;;;2.67;;
50433;SDS011;36361;38.954;-9.002;2023-02-28T00:24:58;11.93;;;2.90;;
50433;SDS011;36361;38.954;-9.002;2023-02-28T00:26:00;8.57;;;3.00;;
50433;SDS011;36361;38.954;-9.002;2023-02-28T00:27:01;7.20;;;2.77;;
50433;SDS011;36361;38.954;-9.002;2023-02-28T00:28:02;8.23;;;2.90;;
50433;SDS011;36361;38.954;-9.002;2023-02-28T00:29:03;7.13;;;2.40;;
50433;SDS011;36361;38.954;-9.002;2023-02-28T00:30:08;8.43;;;2.77;;
50433;SDS011;36361;38.954;-9.002;2023-02-28T00:31:13;9.70;;;3.20;;
50433;SDS011;36361;38.954;-9.002;2023-02-28T00:32:18;9.37;;;2.83;;
50433;SDS011;36361;38.954;-9.002;2023-02-28T00:33:20;7.90;;;2.90;;
50433;SDS011;36361;38.954;-9.002;2023-02-28T00:34:28;7.13;;;2.53;;
50433;SDS011;36361;38.954;-9.002;2023-02-28T00:35:32;11.80;;;2.87;;
50433;SDS011;36361;38.954;-9.002;2023-02-28T00:36:35;8.93;;;3.53;;
50433;SDS011;36361;38.954;-9.002;2023-02-28T00:37:43;7.15;;;2.50;;
50433;SDS011;36361;38.954;-9.002;2023-02-28T00:38:45;8.47;;;3.27;;
50433;SDS011;36361;38.954;-9.002;2023-02-28T00:39:47;7.43;;;2.80;;
50433;SDS011;36361;38.954;-9.002;2023-02-28T00:40:49;8.53;;;3.03;;
50433;SDS011;36361;38.954;-9.002;2023-02-28T00:42:02;7.83;;;2.70;;
50433;SDS011;36361;38.954;-9.002;2023-02-28T00:43:04;6.43;;;2.50;;
50433;SDS011;36361;38.954;-9.002;2023-02-28T00:44:06;8.93;;;2.80;;
50433;SDS011;36361;38.954;-9.002;2023-02-28T00:45:13;10.40;;;2.93;;
50433;SDS011;36361;38.954;-9.002;2023-02-28T00:46:15;10.00;;;3.07;;
50433;SDS011;36361;38.954;-9.002;2023-02-28T00:47:17;11.00;;;3.43;;
50433;SDS011;36361;38.954;-9.002;2023-02-28T00:48:19;6.83;;;2.50;;
50433;SDS011;36361;38.954;-9.002;2023-02-28T00:49:21;5.90;;;2.30;;
50433;SDS011;36361;38.954;-9.002;2023-02-28T00:50:23;19.20;;;3.10;;
50433;SDS011;36361;38.954;-9.002;2023-02-28T00:51:24;6.23;;;2.40;;
50433;SDS011;36361;38.954;-9.002;2023-02-28T00:52:26;6.67;;;2.87;;
50433;SDS011;36361;38.954;-9.002;2023-02-28T00:53:28;10.07;;;2.90;;
50433;SDS011;36361;38.954;-9.002;2023-02-28T00:54:31;7.50;;;2.93;;
50433;SDS011;36361;38.954;-9.002;2023-02-28T00:55:33;9.03;;;3.00;;
50433;SDS011;36361;38.954;-9.002;2023-02-28T00:56:34;8.87;;;2.77;;
50433;SDS011;36361;38.954;-9.002;2023-02-28T00:57:36;9.83;;;3.37;;
50433;SDS011;36361;38.954;-9.002;2023-02-28T00:58:37;9.63;;;2.73;;
50433;SDS011;36361;38.954;-9.002;2023-02-28T00:59:38;9.03;;;3.10;;
50433;SDS011;36361;38.954;-9.002;2023-02-28T01:00:40;8.80;;;2.57;;
50433;SDS011;36361;38.954;-9.002;2023-02-28T01:01:42;9.87;;;2.60;;
50433;SDS011;36361;38.954;-9.002;2023-02-28T01:02:45;5.83;;;2.60;;
50433;SDS011;36361;38.954;-9.002;2023-02-28T01:03:48;9.50;;;3.00;;
50433;SDS011;36361;38.954;-9.002;2023-02-28T01:04:50;6.43;;;2.90;;
50433;SDS011;36361;38.954;-9.002;2023-02-28T01:05:51;6.23;;;2.93;;
50433;SDS011;36361;38.954;-9.002;2023-02-28T01:06:55;7.80;;;2.83;;
50433;SDS011;36361;38.954;-9.002;2023-02-28T01:07:57;18.10;;;3.67;;
50433;SDS011;36361;38.954;-9.002;2023-02-28T01:08:59;7.50;;;3.03;;
50433;SDS011;36361;38.954;-9.002;2023-02-28T01:10:04;10.83;;;3.00;;
50433;SDS011;36361;38.954;-9.002;2023-02-28T01:11:07;9.00;;;3.43;;
50433;SDS011;36361;38.954;-9.002;2023-02-28T01:12:14;5.73;;;2.40;;
50433;SDS011;36361;38.954;-9.002;2023-02-28T01:13:16;9.07;;;3.07;;
50433;SDS011;36361;38.954;-9.002;2023-02-28T01:14:21;8.97;;;3.60;;
50433;SDS011;36361;38.954;-9.002;2023-02-28T01:15:23;11.20;;;3.57;;
50433;SDS011;36361;38.954;-9.002;2023-02-28T01:16:26;6.00;;;2.83;;
50433;SDS011;36361;38.954;-9.002;2023-02-28T01:17:29;9.17;;;2.93;;
50433;SDS011;36361;38.954;-9.002;2023-02-28T01:18:30;8.03;;;2.93;;
50433;SDS011;36361;38.954;-9.002;2023-02-28T01:19:32;7.00;;;3.20;;
50433;SDS011;36361;38.954;-9.002;2023-02-28T01:20:35;10.00;;;3.73;;
50433;SDS011;36361;38.954;-9.002;2023-02-28T01:21:37;8.40;;;3.03;;
50433;SDS011;36361;38.954;-9.002;2023-02-28T01:22:39;10.60;;;3.90;;
50433;SDS011;36361;38.954;-9.002;2023-02-28T01:23:41;10.57;;;3.50;;
50433;SDS011;36361;38.954;-9.002;2023-02-28T01:24:44;9.63;;;3.50;;
50433;SDS011;36361;38.954;-9.002;2023-02-28T01:25:46;11.00;;;3.40;;
50433;SDS011;36361;38.954;-9.002;2023-02-28T01:26:48;11.00;;;3.53;;
50433;SDS011;36361;38.954;-9.002;2023-02-28T01:27:49;9.27;;;3.50;;
50433;SDS011;36361;38.954;-9.002;2023-02-28T01:28:51;8.30;;;3.45;;
50433;SDS011;36361;38.954;-9.002;2023-02-28T01:29:53;9.63;;;4.30;;
50433;SDS011;36361;38.954;-9.002;2023-02-28T01:30:54;11.47;;;3.73;;
50433;SDS011;36361;38.954;-9.002;2023-02-28T01:31:56;13.47;;;3.93;;
50433;SDS011;36361;38.954;-9.002;2023-02-28T01:33:00;7.93;;;3.45;;
50433;SDS011;36361;38.954;-9.002;2023-02-28T01:34:01;11.40;;;3.60;;
50433;SDS011;36361;38.954;-9.002;2023-02-28T01:35:04;11.48;;;4.07;;
50433;SDS011;36361;38.954;-9.002;2023-02-28T01:36:07;8.63;;;3.38;;
50433;SDS011;36361;38.954;-9.002;2023-02-28T01:37:10;6.80;;;3.30;;
50433;SDS011;36361;38.954;-9.002;2023-02-28T01:38:17;5.57;;;3.20;;
50433;SDS011;36361;38.954;-9.002;2023-02-28T01:39:22;9.07;;;3.28;;
50433;SDS011;36361;38.954;-9.002;2023-02-28T01:40:27;7.53;;;4.03;;
50433;SDS011;36361;38.954;-9.002;2023-02-28T01:41:30;9.30;;;3.07;;
50433;SDS011;36361;38.954;-9.002;2023-02-28T01:42:34;10.30;;;3.75;;
50433;SDS011;36361;38.954;-9.002;2023-02-28T01:44:57;6.10;;;2.83;;
50433;SDS011;36361;38.954;-9.002;2023-02-28T01:45:59;9.75;;;4.22;;
50433;SDS011;36361;38.954;-9.002;2023-02-28T01:47:00;10.15;;;3.45;;
50433;SDS011;36361;38.954;-9.002;2023-02-28T01:48:04;8.85;;;3.63;;
50433;SDS011;36361;38.954;-9.002;2023-02-28T01:49:11;10.57;;;3.58;;
50433;SDS011;36361;38.954;-9.002;2023-02-28T01:50:19;6.93;;;3.83;;
50433;SDS011;36361;38.954;-9.002;2023-02-28T01:51:28;10.83;;;3.43;;
50433;SDS011;36361;38.954;-9.002;2023-02-28T01:52:33;8.65;;;3.55;;
50433;SDS011;36361;38.954;-9.002;2023-02-28T01:53:37;8.83;;;3.97;;
50433;SDS011;36361;38.954;-9.002;2023-02-28T01:54:42;8.70;;;3.43;;
50433;SDS011;36361;38.954;-9.002;2023-02-28T01:55:48;9.30;;;3.93;;
50433;SDS011;36361;38.954;-9.002;2023-02-28T01:56:55;9.20;;;4.27;;
50433;SDS011;36361;38.954;-9.002;2023-02-28T01:58:00;11.43;;;4.37;;
50433;SDS011;36361;38.954;-9.002;2023-02-28T01:59:04;9.20;;;3.60;;
50433;SDS011;36361;38.954;-9.002;2023-02-28T02:00:12;12.23;;;4.17;;
50433;SDS011;36361;38.954;-9.002;2023-02-28T02:01:20;9.30;;;3.43;;
50433;SDS011;36361;38.954;-9.002;2023-02-28T02:02:23;8.80;;;3.60;;
50433;SDS011;36361;38.954;-9.002;2023-02-28T02:03:25;10.27;;;4.17;;
50433;SDS011;36361;38.954;-9.002;2023-02-28T02:04:28;10.00;;;4.00;;
50433;SDS011;36361;38.954;-9.002;2023-02-28T02:05:38;9.47;;;3.23;;
50433;SDS011;36361;38.954;-9.002;2023-02-28T02:06:42;10.87;;;4.30;;
50433;SDS011;36361;38.954;-9.002;2023-02-28T02:07:46;6.53;;;3.63;;
50433;SDS011;36361;38.954;-9.002;2023-02-28T02:08:50;8.50;;;3.73;;
50433;SDS011;36361;38.954;-9.002;2023-02-28T02:10:04;6.70;;;3.23;;
50433;SDS011;36361;38.954;-9.002;2023-02-28T02:11:11;9.82;;;3.42;;
50433;SDS011;36361;38.954;-9.002;2023-02-28T02:12:23;12.13;;;4.40;;
50433;SDS011;36361;38.954;-9.002;2023-02-28T02:17:37;10.00;;;3.37;;
50433;SDS011;36361;38.954;-9.002;2023-02-28T02:38:33;10.50;;;3.80;;
50433;SDS011;36361;38.954;-9.002;2023-02-28T02:42:15;9.27;;;3.63;;
50433;SDS011;36361;38.954;-9.002;2023-02-28T02:43:25;9.50;;;3.60;;
50433;SDS011;36361;38.954;-9.002;2023-02-28T02:44:40;9.80;;;3.57;;
50433;SDS011;36361;38.954;-9.002;2023-02-28T02:45:50;10.03;;;3.67;;
50433;SDS011;36361;38.954;-9.002;2023-02-28T02:47:01;9.27;;;3.83;;
50433;SDS011;36361;38.954;-9.002;2023-02-28T02:48:09;7.90;;;3.80;;
50433;SDS011;36361;38.954;-9.002;2023-02-28T02:49:19;8.30;;;3.60;;
50433;SDS011;36361;38.954;-9.002;2023-02-28T02:50:26;8.13;;;3.53;;
50433;SDS011;36361;38.954;-9.002;2023-02-28T02:52:47;9.17;;;3.27;;
50433;SDS011;36361;38.954;-9.002;2023-02-28T02:53:57;9.70;;;3.80;;
50433;SDS011;36361;38.954;-9.002;2023-02-28T02:55:00;8.47;;;3.67;;
50433;SDS011;36361;38.954;-9.002;2023-02-28T02:56:05;10.83;;;3.27;;
50433;SDS011;36361;38.954;-9.002;2023-02-28T02:57:10;9.10;;;3.77;;
50433;SDS011;36361;38.954;-9.002;2023-02-28T02:58:16;10.52;;;3.30;;
50433;SDS011;36361;38.954;-9.002;2023-02-28T02:59:22;7.30;;;3.63;;
50433;SDS011;36361;38.954;-9.002;2023-02-28T03:00:27;5.13;;;3.50;;
50433;SDS011;36361;38.954;-9.002;2023-02-28T03:01:33;7.23;;;3.80;;
50433;SDS011;36361;38.954;-9.002;2023-02-28T03:02:37;8.97;;;4.03;;
50433;SDS011;36361;38.954;-9.002;2023-02-28T03:03:41;10.33;;;3.43;;
50433;SDS011;36361;38.954;-9.002;2023-02-28T03:04:48;9.20;;;3.50;;
50433;SDS011;36361;38.954;-9.002;2023-02-28T03:05:56;7.83;;;3.33;;
50433;SDS011;36361;38.954;-9.002;2023-02-28T03:06:58;11.37;;;3.60;;
50433;SDS011;36361;38.954;-9.002;2023-02-28T03:08:02;10.10;;;3.43;;
50433;SDS011;36361;38.954;-9.002;2023-02-28T03:09:05;6.70;;;3.50;;
50433;SDS011;36361;38.954;-9.002;2023-02-28T03:10:26;10.70;;;4.20;;
50433;SDS011;36361;38.954;-9.002;2023-02-28T03:11:29;8.47;;;3.27;;
50433;SDS011;36361;38.954;-9.002;2023-02-28T03:12:33;9.03;;;3.60;;
50433;SDS011;36361;38.954;-9.002;2023-02-28T03:13:52;8.27;;;3.90;;
50433;SDS011;36361;38.954;-9.002;2023-02-28T03:18:32;7.40;;;2.97;;
50433;SDS011;36361;38.954;-9.002;2023-02-28T03:19:45;8.53;;;3.33;;
50433;SDS011;36361;38.954;-9.002;2023-02-28T03:24:55;6.53;;;3.70;;
50433;SDS011;36361;38.954;-9.002;2023-02-28T03:26:21;7.77;;;3.70;;
50433;SDS011;36361;38.954;-9.002;2023-02-28T03:27:28;10.70;;;3.73;;
50433;SDS011;36361;38.954;-9.002;2023-02-28T03:29:58;8.60;;;3.73;;
50433;SDS011;36361;38.954;-9.002;2023-02-28T03:31:25;14.57;;;4.10;;
50433;SDS011;36361;38.954;-9.002;2023-02-28T03:32:29;11.10;;;3.70;;
50433;SDS011;36361;38.954;-9.002;2023-02-28T03:33:56;7.97;;;3.57;;
50433;SDS011;36361;38.954;-9.002;2023-02-28T03:35:12;10.53;;;4.67;;
50433;SDS011;36361;38.954;-9.002;2023-02-28T03:36:23;8.83;;;3.20;;
50433;SDS011;36361;38.954;-9.002;2023-02-28T03:37:30;10.18;;;3.90;;
50433;SDS011;36361;38.954;-9.002;2023-02-28T03:38:49;11.13;;;3.60;;
50433;SDS011;36361;38.954;-9.002;2023-02-28T03:40:00;10.87;;;3.57;;
50433;SDS011;36361;38.954;-9.002;2023-02-28T03:41:13;9.70;;;3.58;;
50433;SDS011;36361;38.954;-9.002;2023-02-28T03:42:20;6.17;;;3.27;;
50433;SDS011;36361;38.954;-9.002;2023-02-28T03:43:27;10.50;;;3.67;;
50433;SDS011;36361;38.954;-9.002;2023-02-28T03:44:35;8.47;;;3.87;;
50433;SDS011;36361;38.954;-9.002;2023-02-28T03:45:41;9.23;;;3.47;;
50433;SDS011;36361;38.954;-9.002;2023-02-28T03:46:49;9.23;;;3.37;;
50433;SDS011;36361;38.954;-9.002;2023-02-28T03:48:15;10.10;;;3.50;;
50433;SDS011;36361;38.954;-9.002;2023-02-28T03:49:18;8.60;;;3.77;;
50433;SDS011;36361;38.954;-9.002;2023-02-28T03:50:32;7.50;;;3.57;;
50433;SDS011;36361;38.954;-9.002;2023-02-28T03:51:46;8.87;;;3.73;;
50433;SDS011;36361;38.954;-9.002;2023-02-28T03:52:51;6.63;;;3.47;;
50433;SDS011;36361;38.954;-9.002;2023-02-28T03:54:06;7.50;;;3.67;;
50433;SDS011;36361;38.954;-9.002;2023-02-28T03:55:13;9.90;;;4.50;;
50433;SDS011;36361;38.954;-9.002;2023-02-28T03:56:19;7.47;;;3.83;;
50433;SDS011;36361;38.954;-9.002;2023-02-28T04:01:14;9.60;;;3.90;;
50433;SDS011;36361;38.954;-9.002;2023-02-28T04:02:19;10.60;;;3.67;;
50433;SDS011;36361;38.954;-9.002;2023-02-28T04:03:20;8.90;;;3.87;;
50433;SDS011;36361;38.954;-9.002;2023-02-28T04:04:24;7.40;;;3.40;;
50433;SDS011;36361;38.954;-9.002;2023-02-28T04:05:25;6.13;;;3.87;;
50433;SDS011;36361;38.954;-9.002;2023-02-28T04:06:29;11.47;;;4.20;;
50433;SDS011;36361;38.954;-9.002;2023-02-28T04:07:34;10.17;;;4.03;;
50433;SDS011;36361;38.954;-9.002;2023-02-28T04:08:36;12.83;;;4.40;;
50433;SDS011;36361;38.954;-9.002;2023-02-28T04:09:39;10.43;;;3.77;;
50433;SDS011;36361;38.954;-9.002;2023-02-28T04:10:42;8.53;;;4.07;;
50433;SDS011;36361;38.954;-9.002;2023-02-28T04:11:56;11.87;;;3.90;;
50433;SDS011;36361;38.954;-9.002;2023-02-28T04:13:08;7.70;;;3.90;;
50433;SDS011;36361;38.954;-9.002;2023-02-28T04:14:10;7.80;;;3.83;;
50433;SDS011;36361;38.954;-9.002;2023-02-28T04:15:13;11.93;;;4.60;;
50433;SDS011;36361;38.954;-9.002;2023-02-28T04:16:15;7.40;;;3.70;;
50433;SDS011;36361;38.954;-9.002;2023-02-28T04:17:17;13.13;;;4.17;;
50433;SDS011;36361;38.954;-9.002;2023-02-28T04:18:19;7.30;;;3.77;;
50433;SDS011;36361;38.954;-9.002;2023-02-28T04:19:24;8.83;;;3.80;;
50433;SDS011;36361;38.954;-9.002;2023-02-28T04:20:26;8.23;;;3.60;;
50433;SDS011;36361;38.954;-9.002;2023-02-28T04:21:35;11.67;;;4.37;;
50433;SDS011;36361;38.954;-9.002;2023-02-28T04:22:44;7.17;;;3.97;;
50433;SDS011;36361;38.954;-9.002;2023-02-28T04:23:46;6.93;;;3.67;;
50433;SDS011;36361;38.954;-9.002;2023-02-28T04:24:49;10.37;;;4.00;;
50433;SDS011;36361;38.954;-9.002;2023-02-28T04:25:54;9.23;;;4.37;;
50433;SDS011;36361;38.954;-9.002;2023-02-28T04:26:56;7.67;;;3.87;;
50433;SDS011;36361;38.954;-9.002;2023-02-28T04:27:59;9.17;;;4.03;;
50433;SDS011;36361;38.954;-9.002;2023-02-28T04:29:02;5.83;;;3.80;;
50433;SDS011;36361;38.954;-9.002;2023-02-28T04:30:05;8.43;;;3.57;;
50433;SDS011;36361;38.954;-9.002;2023-02-28T04:31:08;7.90;;;4.10;;
50433;SDS011;36361;38.954;-9.002;2023-02-28T04:32:13;8.30;;;4.20;;
50433;SDS011;36361;38.954;-9.002;2023-02-28T04:33:14;9.37;;;3.90;;
50433;SDS011;36361;38.954;-9.002;2023-02-28T04:34:19;8.83;;;3.77;;
50433;SDS011;36361;38.954;-9.002;2023-02-28T04:35:22;9.00;;;4.50;;
50433;SDS011;36361;38.954;-9.002;2023-02-28T04:36:40;8.47;;;3.67;;
50433;SDS011;36361;38.954;-9.002;2023-02-28T04:37:42;6.20;;;3.57;;
50433;SDS011;36361;38.954;-9.002;2023-02-28T04:38:44;5.53;;;3.50;;
50433;SDS011;36361;38.954;-9.002;2023-02-28T04:39:46;7.77;;;3.50;;
50433;SDS011;36361;38.954;-9.002;2023-02-28T04:40:50;6.53;;;3.50;;
50433;SDS011;36361;38.954;-9.002;2023-02-28T04:42:01;8.07;;;3.50;;
50433;SDS011;36361;38.954;-9.002;2023-02-28T04:43:03;6.57;;;3.20;;
50433;SDS011;36361;38.954;-9.002;2023-02-28T04:44:06;10.23;;;4.23;;
50433;SDS011;36361;38.954;-9.002;2023-02-28T04:45:09;10.13;;;4.30;;
50433;SDS011;36361;38.954;-9.002;2023-02-28T04:46:16;8.77;;;3.40;;
50433;SDS011;36361;38.954;-9.002;2023-02-28T04:47:19;7.37;;;3.30;;
50433;SDS011;36361;38.954;-9.002;2023-02-28T04:48:21;7.67;;;3.40;;
50433;SDS011;36361;38.954;-9.002;2023-02-28T04:49:25;8.93;;;3.67;;
50433;SDS011;36361;38.954;-9.002;2023-02-28T04:50:27;6.90;;;3.53;;
50433;SDS011;36361;38.954;-9.002;2023-02-28T04:51:36;7.03;;;3.43;;
50433;SDS011;36361;38.954;-9.002;2023-02-28T04:52:41;8.83;;;3.37;;
50433;SDS011;36361;38.954;-9.002;2023-02-28T04:53:43;6.03;;;3.27;;
50433;SDS011;36361;38.954;-9.002;2023-02-28T04:54:47;4.60;;;2.53;;
50433;SDS011;36361;38.954;-9.002;2023-02-28T04:55:54;7.13;;;2.97;;
50433;SDS011;36361;38.954;-9.002;2023-02-28T04:57:00;6.35;;;2.42;;
50433;SDS011;36361;38.954;-9.002;2023-02-28T04:58:03;6.10;;;2.70;;
50433;SDS011;36361;38.954;-9.002;2023-02-28T04:59:06;5.60;;;2.93;;
50433;SDS011;36361;38.954;-9.002;2023-02-28T05:00:07;6.50;;;3.30;;
50433;SDS011;36361;38.954;-9.002;2023-02-28T05:01:25;13.13;;;3.20;;
50433;SDS011;36361;38.954;-9.002;2023-02-28T05:02:34;7.20;;;2.80;;
50433;SDS011;36361;38.954;-9.002;2023-02-28T05:03:36;7.47;;;2.97;;
50433;SDS011;36361;38.954;-9.002;2023-02-28T05:04:38;10.87;;;3.10;;
50433;SDS011;36361;38.954;-9.002;2023-02-28T05:05:41;7.77;;;2.97;;
50433;SDS011;36361;38.954;-9.002;2023-02-28T05:06:43;7.87;;;3.00;;
50433;SDS011;36361;38.954;-9.002;2023-02-28T05:07:46;7.10;;;2.73;;
50433;SDS011;36361;38.954;-9.002;2023-02-28T05:08:48;9.63;;;2.80;;
50433;SDS011;36361;38.954;-9.002;2023-02-28T05:09:51;6.73;;;2.67;;
50433;SDS011;36361;38.954;-9.002;2023-02-28T05:10:53;6.00;;;2.80;;
50433;SDS011;36361;38.954;-9.002;2023-02-28T05:11:56;9.17;;;3.10;;
50433;SDS011;36361;38.954;-9.002;2023-02-28T05:13:03;5.70;;;2.00;;
50433;SDS011;36361;38.954;-9.002;2023-02-28T05:14:11;8.23;;;2.90;;
50433;SDS011;36361;38.954;-9.002;2023-02-28T05:15:15;6.40;;;2.77;;
50433;SDS011;36361;38.954;-9.002;2023-02-28T05:16:20;7.00;;;2.23;;
50433;SDS011;36361;38.954;-9.002;2023-02-28T05:17:22;6.57;;;2.57;;
50433;SDS011;36361;38.954;-9.002;2023-02-28T05:18:26;6.03;;;2.77;;
50433;SDS011;36361;38.954;-9.002;2023-02-28T05:19:32;8.47;;;2.73;;
50433;SDS011;36361;38.954;-9.002;2023-02-28T05:20:37;7.63;;;2.87;;
50433;SDS011;36361;38.954;-9.002;2023-02-28T05:21:41;5.80;;;2.37;;
50433;SDS011;36361;38.954;-9.002;2023-02-28T05:22:54;8.70;;;2.50;;
50433;SDS011;36361;38.954;-9.002;2023-02-28T05:23:59;7.50;;;2.90;;
50433;SDS011;36361;38.954;-9.002;2023-02-28T05:25:03;5.83;;;2.50;;
50433;SDS011;36361;38.954;-9.002;2023-02-28T05:26:06;8.87;;;3.03;;
50433;SDS011;36361;38.954;-9.002;2023-02-28T05:27:08;8.97;;;2.50;;
50433;SDS011;36361;38.954;-9.002;2023-02-28T05:28:11;6.00;;;2.50;;
50433;SDS011;36361;38.954;-9.002;2023-02-28T05:29:12;7.20;;;2.57;;
50433;SDS011;36361;38.954;-9.002;2023-02-28T05:30:14;6.73;;;2.70;;
50433;SDS011;36361;38.954;-9.002;2023-02-28T05:31:20;6.07;;;2.40;;
50433;SDS011;36361;38.954;-9.002;2023-02-28T05:32:22;5.33;;;2.20;;
50433;SDS011;36361;38.954;-9.002;2023-02-28T05:33:25;6.20;;;2.10;;
50433;SDS011;36361;38.954;-9.002;2023-02-28T05:34:27;6.03;;;2.03;;
50433;SDS011;36361;38.954;-9.002;2023-02-28T05:35:30;4.40;;;1.93;;
50433;SDS011;36361;38.954;-9.002;2023-02-28T05:36:32;5.90;;;2.23;;
50433;SDS011;36361;38.954;-9.002;2023-02-28T05:37:34;6.53;;;2.03;;
50433;SDS011;36361;38.954;-9.002;2023-02-28T05:38:35;4.97;;;2.30;;
50433;SDS011;36361;38.954;-9.002;2023-02-28T05:39:37;7.33;;;2.33;;
50433;SDS011;36361;38.954;-9.002;2023-02-28T05:40:39;7.07;;;2.20;;
50433;SDS011;36361;38.954;-9.002;2023-02-28T05:41:41;8.97;;;2.20;;
50433;SDS011;36361;38.954;-9.002;2023-02-28T05:42:44;6.97;;;2.13;;
50433;SDS011;36361;38.954;-9.002;2023-02-28T05:43:45;5.00;;;2.03;;
50433;SDS011;36361;38.954;-9.002;2023-02-28T05:44:47;5.13;;;1.90;;
50433;SDS011;36361;38.954;-9.002;2023-02-28T05:45:49;4.90;;;2.17;;
50433;SDS011;36361;38.954;-9.002;2023-02-28T05:46:51;6.07;;;2.40;;
50433;SDS011;36361;38.954;-9.002;2023-02-28T05:47:53;6.33;;;2.50;;
50433;SDS011;36361;38.954;-9.002;2023-02-28T05:48:55;5.77;;;2.20;;
50433;SDS011;36361;38.954;-9.002;2023-02-28T05:49:58;7.13;;;2.23;;
50433;SDS011;36361;38.954;-9.002;2023-02-28T05:51:02;7.83;;;2.57;;
50433;SDS011;36361;38.954;-9.002;2023-02-28T05:52:04;7.43;;;2.30;;
50433;SDS011;36361;38.954;-9.002;2023-02-28T05:53:06;8.30;;;2.10;;
50433;SDS011;36361;38.954;-9.002;2023-02-28T05:54:09;4.43;;;2.37;;
50433;SDS011;36361;38.954;-9.002;2023-02-28T05:55:11;5.33;;;2.40;;
50433;SDS011;36361;38.954;-9.002;2023-02-28T05:56:19;5.60;;;2.43;;
50433;SDS011;36361;38.954;-9.002;2023-02-28T05:57:23;5.82;;;2.30;;
50433;SDS011;36361;38.954;-9.002;2023-02-28T05:58:25;6.47;;;2.00;;
50433;SDS011;36361;38.954;-9.002;2023-02-28T05:59:36;8.00;;;2.03;;
50433;SDS011;36361;38.954;-9.002;2023-02-28T06:00:41;6.90;;;2.37;;
50433;SDS011;36361;38.954;-9.002;2023-02-28T06:01:47;5.20;;;1.83;;
50433;SDS011;36361;38.954;-9.002;2023-02-28T06:02:49;4.93;;;1.97;;
50433;SDS011;36361;38.954;-9.002;2023-02-28T06:03:51;8.80;;;2.30;;
50433;SDS011;36361;38.954;-9.002;2023-02-28T06:04:54;3.80;;;1.87;;
50433;SDS011;36361;38.954;-9.002;2023-02-28T06:05:55;7.27;;;2.10;;
50433;SDS011;36361;38.954;-9.002;2023-02-28T06:06:58;4.27;;;2.00;;
50433;SDS011;36361;38.954;-9.002;2023-02-28T06:08:06;5.85;;;1.80;;
50433;SDS011;36361;38.954;-9.002;2023-02-28T06:09:08;4.80;;;2.30;;
50433;SDS011;36361;38.954;-9.002;2023-02-28T06:10:10;5.17;;;2.10;;
50433;SDS011;36361;38.954;-9.002;2023-02-28T06:11:16;4.10;;;2.00;;
50433;SDS011;36361;38.954;-9.002;2023-02-28T06:12:23;3.47;;;1.70;;
50433;SDS011;36361;38.954;-9.002;2023-02-28T06:13:25;5.50;;;2.33;;
50433;SDS011;36361;38.954;-9.002;2023-02-28T06:14:28;4.80;;;1.83;;
50433;SDS011;36361;38.954;-9.002;2023-02-28T06:15:36;7.37;;;1.97;;
50433;SDS011;36361;38.954;-9.002;2023-02-28T06:16:39;4.87;;;2.20;;
50433;SDS011;36361;38.954;-9.002;2023-02-28T06:17:43;6.07;;;2.40;;
50433;SDS011;36361;38.954;-9.002;2023-02-28T06:18:46;6.27;;;2.40;;
50433;SDS011;36361;38.954;-9.002;2023-02-28T06:19:48;4.97;;;2.07;;
50433;SDS011;36361;38.954;-9.002;2023-02-28T06:20:53;6.90;;;2.60;;
50433;SDS011;36361;38.954;-9.002;2023-02-28T06:21:57;9.13;;;2.30;;
50433;SDS011;36361;38.954;-9.002;2023-02-28T06:23:00;8.87;;;2.80;;
50433;SDS011;36361;38.954;-9.002;2023-02-28T06:24:02;6.57;;;2.93;;
50433;SDS011;36361;38.954;-9.002;2023-02-28T06:25:05;5.33;;;2.40;;
50433;SDS011;36361;38.954;-9.002;2023-02-28T06:26:07;8.20;;;2.27;;
50433;SDS011;36361;38.954;-9.002;2023-02-28T06:27:10;4.03;;;2.10;;
50433;SDS011;36361;38.954;-9.002;2023-02-28T06:28:12;7.53;;;2.43;;
50433;SDS011;36361;38.954;-9.002;2023-02-28T06:29:15;6.13;;;2.47;;
50433;SDS011;36361;38.954;-9.002;2023-02-28T06:30:19;7.40;;;2.50;;
50433;SDS011;36361;38.954;-9.002;2023-02-28T06:31:24;6.72;;;3.22;;
50433;SDS011;36361;38.954;-9.002;2023-02-28T06:32:27;8.63;;;3.10;;
50433;SDS011;36361;38.954;-9.002;2023-02-28T06:33:29;6.25;;;2.83;;
50433;SDS011;36361;38.954;-9.002;2023-02-28T06:34:31;5.13;;;2.50;;
50433;SDS011;36361;38.954;-9.002;2023-02-28T06:35:34;6.53;;;2.70;;
50433;SDS011;36361;38.954;-9.002;2023-02-28T06:36:36;6.77;;;2.60;;
50433;SDS011;36361;38.954;-9.002;2023-02-28T06:37:39;7.70;;;2.97;;
50433;SDS011;36361;38.954;-9.002;2023-02-28T06:38:41;10.87;;;3.00;;
50433;SDS011;36361;38.954;-9.002;2023-02-28T06:39:43;5.47;;;2.53;;
50433;SDS011;36361;38.954;-9.002;2023-02-28T06:40:52;6.37;;;3.10;;
50433;SDS011;36361;38.954;-9.002;2023-02-28T06:41:57;7.07;;;2.75;;
50433;SDS011;36361;38.954;-9.002;2023-02-28T06:43:00;5.20;;;2.87;;
50433;SDS011;36361;38.954;-9.002;2023-02-28T06:44:10;7.30;;;2.93;;
50433;SDS011;36361;38.954;-9.002;2023-02-28T06:45:14;7.77;;;3.60;;
50433;SDS011;36361;38.954;-9.002;2023-02-28T06:46:16;8.93;;;3.30;;
50433;SDS011;36361;38.954;-9.002;2023-02-28T06:47:19;7.03;;;2.20;;
50433;SDS011;36361;38.954;-9.002;2023-02-28T06:48:22;4.60;;;2.57;;
50433;SDS011;36361;38.954;-9.002;2023-02-28T06:49:25;7.43;;;2.90;;
50433;SDS011;36361;38.954;-9.002;2023-02-28T06:50:27;8.80;;;2.60;;
50433;SDS011;36361;38.954;-9.002;2023-02-28T06:51:31;5.40;;;1.93;;
50433;SDS011;36361;38.954;-9.002;2023-02-28T06:52:33;5.30;;;2.80;;
50433;SDS011;36361;38.954;-9.002;2023-02-28T06:53:37;6.80;;;2.27;;
50433;SDS011;36361;38.954;-9.002;2023-02-28T06:54:41;5.40;;;2.27;;
50433;SDS011;36361;38.954;-9.002;2023-02-28T06:55:43;6.23;;;2.47;;
50433;SDS011;36361;38.954;-9.002;2023-02-28T06:56:45;6.27;;;3.40;;
50433;SDS011;36361;38.954;-9.002;2023-02-28T06:57:48;6.60;;;2.40;;
50433;SDS011;36361;38.954;-9.002;2023-02-28T06:58:51;7.53;;;2.63;;
50433;SDS011;36361;38.954;-9.002;2023-02-28T07:00:00;6.87;;;2.17;;
50433;SDS011;36361;38.954;-9.002;2023-02-28T07:01:07;6.17;;;2.50;;
50433;SDS011;36361;38.954;-9.002;2023-02-28T07:02:10;5.17;;;2.20;;
50433;SDS011;36361;38.954;-9.002;2023-02-28T07:03:12;4.90;;;2.13;;